Time;durP1;ratioP1;P1;durP2;ratioP2;P2;SDS_P1;SDS_P2;PMS_P1;PMS_P2;Temp;Humidity;BMP_temperature;BMP_pressure;BME280_temperature;BME280_humidity;BME280_pressure;Samples;Min_cycle;Max_cycle;Signal;HPM_P1;HPM_P2
2023/04/20 00:01:02;;;;;;;15.60;10.50;;;;;;;9.37;72.12;100398.35;102836;1257;98226;-70
2023/04/20 00:03:31;;;;;;;15.30;10.20;;;;;;;9.34;72.27;100396.69;104221;1257;139631;-71
2023/04/20 00:05:55;;;;;;;14.30;10.10;;;;;;;9.31;72.34;100391.88;104298;1259;107103;-70
2023/04/20 00:08:19;;;;;;;13.70;10.00;;;;;;;9.28;72.32;100390.05;103360;1257;138745;-70
2023/04/20 00:10:43;;;;;;;20.20;10.50;;;;;;;9.25;72.34;100386.98;104219;1259;108367;-70
2023/04/20 00:13:10;;;;;;;16.40;10.10;;;;;;;9.24;72.41;100383.91;104250;1256;96233;-71
2023/04/20 00:15:43;;;;;;;17.10;9.60;;;;;;;9.22;72.43;100382.58;103111;1259;138354;-70
2023/04/20 00:18:26;;;;;;;16.20;10.00;;;;;;;9.21;72.46;100385.20;102808;1261;108634;-69
2023/04/20 00:21:10;;;;;;;17.40;10.20;;;;;;;9.19;72.59;100380.22;102727;1258;138668;-69
2023/04/20 00:23:37;;;;;;;21.10;10.00;;;;;;;9.16;72.62;100381.34;102833;1258;108645;-69
2023/04/20 00:26:21;;;;;;;13.60;9.40;;;;;;;9.15;72.82;100382.90;102735;1259;138783;-69
2023/04/20 00:28:56;;;;;;;16.00;9.90;;;;;;;9.12;73.02;100380.89;102929;1261;111204;-69
2023/04/20 00:31:22;;;;;;;15.10;10.50;;;;;;;9.09;72.86;100381.65;102838;1259;107617;-69
2023/04/20 00:34:06;;;;;;;20.60;9.20;;;;;;;9.09;73.09;100383.02;102816;1259;138595;-70
2023/04/20 00:36:50;;;;;;;15.10;10.00;;;;;;;9.09;73.23;100389.11;104320;1257;108539;-70
2023/04/20 00:39:16;;;;;;;;;;;;;;;9.09;73.34;100385.30;104188;1257;138443;-70
2023/04/20 00:42:05;;;;;;;14.60;9.10;;;;;;;9.09;73.33;100382.35;104316;1258;111238;-70
2023/04/20 00:44:32;;;;;;;16.10;9.40;;;;;;;9.12;73.38;100384.89;104138;1259;140100;-70
2023/04/20 00:47:16;;;;;;;17.00;9.20;;;;;;;9.13;73.46;100382.09;104318;1257;95997;-70
2023/04/20 00:49:40;;;;;;;15.30;10.00;;;;;;;9.13;73.56;100385.89;103487;1261;107927;-70
2023/04/20 00:52:05;;;;;;;14.00;9.80;;;;;;;9.14;73.55;100387.42;102735;1259;138542;-70
2023/04/20 00:54:32;;;;;;;15.50;9.60;;;;;;;9.15;73.55;100385.50;102885;1258;111548;-70
2023/04/20 00:57:22;;;;;;;12.80;9.80;;;;;;;9.16;73.68;100383.42;102725;1259;138350;-69
2023/04/20 00:59:56;;;;;;;15.80;10.10;;;;;;;9.16;73.75;100387.06;102978;1256;97797;-70
2023/04/20 01:02:40;;;;;;;14.20;9.80;;;;;;;9.16;73.85;100386.53;102942;1258;138843;-70
2023/04/20 01:05:08;;;;;;;18.30;11.10;;;;;;;9.16;73.82;100388.98;103969;1257;96076;-71
2023/04/20 01:07:31;;;;;;;16.60;10.30;;;;;;;9.16;74.03;100390.19;104345;1258;111053;-70
2023/04/20 01:09:57;;;;;;;13.90;9.70;;;;;;;9.16;74.04;100390.35;104143;1257;138962;-71
2023/04/20 01:12:21;;;;;;;15.50;10.00;;;;;;;9.16;74.07;100388.78;104290;1257;97105;-71
2023/04/20 01:14:47;;;;;;;13.30;9.80;;;;;;;9.19;74.19;100392.70;104185;1258;138611;-70
2023/04/20 01:17:13;;;;;;;15.70;10.30;;;;;;;9.20;74.13;100387.48;104359;1260;95969;-71
2023/04/20 01:19:43;;;;;;;13.70;10.00;;;;;;;9.22;74.22;100386.56;104332;1257;110938;-71
2023/04/20 01:22:07;;;;;;;13.30;10.00;;;;;;;9.24;74.23;100386.51;104137;1258;138422;-70
2023/04/20 01:24:33;;;;;;;13.70;10.70;;;;;;;9.25;74.22;100385.09;104362;1258;96079;-71
2023/04/20 01:26:57;;;;;;;16.50;10.50;;;;;;;9.26;74.05;100385.77;104161;1257;139277;-71
2023/04/20 01:29:20;;;;;;;18.00;10.90;;;;;;;9.27;74.11;100384.01;103799;1258;97862;-69
2023/04/20 01:31:47;;;;;;;12.50;9.90;;;;;;;9.28;74.14;100381.70;104259;1258;111348;-71
2023/04/20 01:34:10;;;;;;;18.30;9.90;;;;;;;9.28;74.04;100380.16;104267;1255;138294;-71
2023/04/20 01:36:55;;;;;;;15.50;10.10;;;;;;;9.29;74.07;100384.10;103419;1257;98421;-70
2023/04/20 01:39:21;;;;;;;13.60;9.70;;;;;;;9.29;74.01;100382.19;104337;1255;138801;-71
2023/04/20 01:41:47;;;;;;;13.90;10.80;;;;;;;9.31;74.08;100381.64;104359;1257;95981;-70
2023/04/20 01:44:13;;;;;;;16.30;10.00;;;;;;;9.33;74.11;100381.58;104363;1256;138952;-70
2023/04/20 01:46:38;;;;;;;16.70;9.90;;;;;;;9.33;74.22;100380.38;104347;1258;106128;-71
2023/04/20 01:49:15;;;;;;;16.70;10.20;;;;;;;9.35;74.08;100378.95;104442;1257;95956;-71
2023/04/20 01:51:39;;;;;;;13.40;10.40;;;;;;;9.34;73.96;100383.48;104174;1260;138521;-71
2023/04/20 01:54:03;;;;;;;16.90;10.30;;;;;;;9.33;74.03;100382.09;104430;1258;95930;-71
2023/04/20 01:56:27;;;;;;;14.80;10.10;;;;;;;9.31;73.93;100378.31;104304;1258;138721;-71
2023/04/20 01:58:54;;;;;;;16.40;11.00;;;;;;;9.31;74.02;100377.64;103116;1260;107022;-71
2023/04/20 02:01:29;;;;;;;14.50;10.40;;;;;;;9.32;73.97;100380.23;103045;1260;98013;-70
2023/04/20 02:03:52;;;;;;;13.70;10.30;;;;;;;9.31;73.93;100381.10;102798;1258;138444;-71
2023/04/20 02:06:28;;;;;;;;;;;;;;;9.32;74.03;100379.88;104343;1257;95861;-71
2023/04/20 02:08:52;;;;;;;16.90;10.40;;;;;;;9.31;74.02;100380.41;104168;1258;124476;-72
2023/04/20 02:11:23;;;;;;;16.60;10.00;;;;;;;9.31;74.09;100378.67;103769;1260;106410;-71
2023/04/20 02:14:07;;;;;;;13.20;10.00;;;;;;;9.34;74.07;100381.40;102907;1260;97719;-71
2023/04/20 02:16:35;;;;;;;15.00;10.70;;;;;;;9.34;74.10;100383.32;104077;1257;107378;-71
2023/04/20 02:19:02;;;;;;;16.70;11.50;;;;;;;9.35;74.03;100385.20;104263;1258;96145;-71
2023/04/20 02:21:26;;;;;;;18.10;11.00;;;;;;;9.36;74.07;100383.10;104248;1257;138287;-71
2023/04/20 02:23:50;;;;;;;15.20;11.50;;;;;;;9.36;74.07;100384.13;104316;1258;111062;-72
2023/04/20 02:26:16;;;;;;;18.90;12.40;;;;;;;9.37;74.12;100385.84;103427;1256;138961;-71
2023/04/20 02:28:48;;;;;;;20.00;11.70;;;;;;;9.37;73.92;100386.17;102876;1257;108262;-71
2023/04/20 02:31:12;;;;;;;16.70;10.40;;;;;;;9.37;73.95;100387.91;102900;1257;97775;-71
2023/04/20 02:33:41;;;;;;;15.20;11.70;;;;;;;9.38;73.87;100387.90;103460;1257;139705;-70
2023/04/20 02:36:05;;;;;;;19.20;12.70;;;;;;;9.36;73.82;100388.98;102960;1261;108220;-70
2023/04/20 02:38:29;;;;;;;14.50;10.90;;;;;;;9.34;73.92;100393.20;104225;1257;138808;-71
2023/04/20 02:40:52;;;;;;;17.00;11.00;;;;;;;9.36;73.96;100391.43;104280;1258;107947;-71
2023/04/20 02:43:16;;;;;;;13.50;10.30;;;;;;;9.36;73.91;100388.83;104218;1261;96046;-71
2023/04/20 02:45:40;;;;;;;16.50;10.40;;;;;;;9.35;73.92;100385.19;103851;1260;138640;-71
2023/04/20 02:48:05;;;;;;;17.30;11.50;;;;;;;9.36;73.85;100387.44;102897;1258;108404;-70
2023/04/20 02:50:49;;;;;;;16.60;10.90;;;;;;;9.36;73.99;100388.47;104278;1258;138815;-71
2023/04/20 02:53:16;;;;;;;17.00;10.70;;;;;;;9.36;73.83;100385.88;103914;1257;107119;-71
2023/04/20 02:55:49;;;;;;;15.20;11.40;;;;;;;9.34;73.77;100387.82;102989;1260;98266;-71
2023/04/20 02:58:25;;;;;;;18.60;11.30;;;;;;;9.33;73.82;100386.79;102744;1259;139829;-71
2023/04/20 03:01:21;;;;;;;15.20;10.80;;;;;;;9.33;73.75;100388.70;104197;1255;107943;-72
2023/04/20 03:03:46;;;;;;;15.00;10.90;;;;;;;9.32;73.72;100386.48;104175;1258;138532;-71
2023/04/20 03:06:10;;;;;;;15.80;11.00;;;;;;;9.31;73.73;100387.02;102990;1261;108046;-71
2023/04/20 03:08:47;;;;;;;18.30;11.10;;;;;;;9.30;73.72;100392.42;103253;1262;138732;-71
2023/04/20 03:11:40;;;;;;;18.00;11.70;;;;;;;9.29;73.85;100392.61;103026;1258;111378;-70
2023/04/20 03:14:09;;;;;;;20.90;12.90;;;;;;;9.29;73.75;100391.92;104292;1260;108481;-71
2023/04/20 03:16:33;;;;;;;14.00;11.80;;;;;;;9.28;73.68;100393.35;104185;1261;138567;-71
2023/04/20 03:18:57;;;;;;;18.40;11.40;;;;;;;9.26;73.81;100392.16;104262;1262;107425;-71
2023/04/20 03:21:20;;;;;;;15.40;11.20;;;;;;;9.25;73.72;100391.67;104204;1257;138685;-71
2023/04/20 03:23:44;;;;;;;15.40;10.80;;;;;;;9.25;73.78;100391.85;103198;1259;110802;-70
2023/04/20 03:26:20;;;;;;;;;;;;;;;9.27;73.77;100392.48;102818;1257;138712;-70
2023/04/20 03:29:02;;;;;;;15.20;9.90;;;;;;;9.27;73.81;100390.77;102962;1259;97882;-69
2023/04/20 03:31:29;;;;;;;16.50;11.70;;;;;;;9.27;73.91;100390.77;102919;1260;108859;-70
2023/04/20 03:33:55;;;;;;;17.90;11.50;;;;;;;9.27;73.86;100390.77;102784;1260;138543;-70
2023/04/20 03:36:39;;;;;;;19.00;10.90;;;;;;;9.29;73.93;100391.41;102953;1261;111694;-70
2023/04/20 03:39:06;;;;;;;16.90;11.10;;;;;;;9.29;73.94;100387.94;102739;1263;139027;-70
2023/04/20 03:41:50;;;;;;;17.30;10.90;;;;;;;9.29;73.94;100393.99;104390;1255;95847;-71
2023/04/20 03:44:23;;;;;;;15.30;11.70;;;;;;;9.30;73.89;100392.77;103695;1258;139008;-70
2023/04/20 03:46:49;;;;;;;16.00;10.80;;;;;;;9.29;73.89;100399.21;103703;1258;95970;-70
2023/04/20 03:49:34;;;;;;;18.20;11.80;;;;;;;9.29;73.95;100402.34;103518;1258;111182;-70
2023/04/20 03:52:18;;;;;;;17.00;11.10;;;;;;;9.27;73.74;100403.09;104072;1257;138423;-70
2023/04/20 03:54:51;;;;;;;17.80;11.60;;;;;;;9.25;73.78;100401.58;103025;1257;97694;-70
2023/04/20 03:57:16;;;;;;;14.20;11.40;;;;;;;9.22;73.80;100405.80;103037;1260;138361;-70
2023/04/20 04:00:00;;;;;;;17.20;11.70;;;;;;;9.20;73.93;100403.09;103696;1263;96090;-70
2023/04/20 04:02:27;;;;;;;16.70;11.40;;;;;;;9.19;73.87;100408.16;104162;1263;138961;-71
2023/04/20 04:04:54;;;;;;;16.80;12.20;;;;;;;9.18;73.87;100410.27;104266;1258;106896;-71
2023/04/20 04:07:23;;;;;;;16.70;11.30;;;;;;;9.16;73.93;100412.38;103718;1258;98404;-70
2023/04/20 04:09:49;;;;;;;17.80;12.30;;;;;;;9.16;73.96;100417.08;102667;1263;138440;-69
2023/04/20 04:12:30;;;;;;;17.20;12.60;;;;;;;9.17;74.07;100417.91;102944;1263;97845;-70
2023/04/20 04:15:07;;;;;;;;;;;;;;;9.18;74.05;100419.98;102834;1260;138695;-69
2023/04/20 04:17:54;;;;;;;16.80;12.00;;;;;;;9.16;74.02;100418.63;104049;1258;108492;-70
2023/04/20 04:20:21;;;;;;;19.50;12.10;;;;;;;9.15;73.98;100421.77;104112;1258;139085;-70
2023/04/20 04:22:45;;;;;;;16.10;11.30;;;;;;;9.14;73.99;100427.51;104316;1260;106931;-70
2023/04/20 04:25:23;;;;;;;16.10;12.00;;;;;;;9.13;74.05;100426.67;104273;1258;96093;-71
2023/04/20 04:27:47;;;;;;;19.70;12.10;;;;;;;9.13;74.02;100432.39;103682;1262;138534;-70
2023/04/20 04:30:13;;;;;;;15.90;11.30;;;;;;;9.15;73.98;100426.62;104206;1261;107833;-69
2023/04/20 04:32:40;;;;;;;16.60;12.20;;;;;;;9.15;73.93;100430.77;102925;1260;139401;-69
2023/04/20 04:35:05;;;;;;;19.00;11.90;;;;;;;9.16;74.00;100426.42;104218;1262;107016;-70
2023/04/20 04:37:29;;;;;;;20.30;12.40;;;;;;;9.19;74.00;100428.98;104232;1262;95949;-72
2023/04/20 04:40:14;;;;;;;18.60;11.80;;;;;;;9.24;74.27;100432.13;104186;1257;138978;-71
2023/04/20 04:42:38;;;;;;;21.50;12.40;;;;;;;9.29;74.10;100434.78;104225;1260;108135;-70
2023/04/20 04:45:03;;;;;;;17.60;12.20;;;;;;;9.32;73.95;100436.61;104132;1257;139175;-70
2023/04/20 04:47:29;;;;;;;24.60;11.80;;;;;;;9.37;73.99;100437.72;104251;1262;107734;-71
2023/04/20 04:49:55;;;;;;;17.40;12.30;;;;;;;9.45;73.82;100440.83;104245;1262;95920;-72
2023/04/20 04:52:18;;;;;;;15.00;11.70;;;;;;;9.51;73.69;100442.40;104187;1258;138907;-74
2023/04/20 04:54:42;;;;;;;16.00;11.90;;;;;;;9.58;73.67;100442.07;104301;1262;108177;-69
2023/04/20 04:57:06;;;;;;;16.10;11.30;;;;;;;9.64;73.50;100443.11;104144;1257;139307;-72
2023/04/20 04:59:29;;;;;;;16.80;12.00;;;;;;;9.72;73.34;100446.06;103102;1260;107602;-71
2023/04/20 05:01:55;;;;;;;19.80;12.00;;;;;;;9.79;73.18;100446.23;103748;1263;97822;-70
2023/04/20 05:04:19;;;;;;;21.10;12.40;;;;;;;9.84;73.02;100453.73;103706;1263;138631;-68
2023/04/20 05:07:03;;;;;;;17.40;12.20;;;;;;;9.89;73.03;100447.54;104152;1263;110802;-72
2023/04/20 05:09:32;;;;;;;16.10;11.80;;;;;;;9.97;72.91;100455.48;103860;1263;138650;-71
2023/04/20 05:11:56;;;;;;;18.30;12.10;;;;;;;10.04;72.84;100457.38;102699;1262;108832;-72
2023/04/20 05:14:20;;;;;;;18.00;11.60;;;;;;;10.14;72.71;100456.77;103908;1261;139083;-67
2023/04/20 05:16:45;;;;;;;18.10;12.50;;;;;;;10.23;72.61;100457.75;102852;1258;110957;-67
2023/04/20 05:19:11;;;;;;;17.00;11.80;;;;;;;10.33;72.53;100455.22;100167;1263;3482439;-67
2023/04/20 05:21:36;;;;;;;16.40;11.90;;;;;;;10.42;72.41;100462.10;102657;1263;139054;-66
2023/04/20 05:24:03;;;;;;;16.30;11.90;;;;;;;10.50;72.25;100458.91;102834;1258;108687;-70
2023/04/20 05:26:26;;;;;;;17.80;12.20;;;;;;;10.58;72.08;100457.83;102709;1257;139203;-69
2023/04/20 05:28:53;;;;;;;20.90;11.10;;;;;;;10.64;71.91;100461.30;102882;1258;112130;-83
2023/04/20 05:31:25;;;;;;;21.40;11.80;;;;;;;10.72;71.76;100465.75;102919;1263;108156;-82
2023/04/20 05:33:49;;;;;;;19.20;11.60;;;;;;;10.81;71.52;100466.90;102834;1260;139064;-82
2023/04/20 05:36:21;;;;;;;17.00;11.60;;;;;;;10.93;71.48;100466.34;102883;1258;107722;-82
2023/04/20 05:38:58;;;;;;;18.20;11.50;;;;;;;11.14;71.06;100470.23;103476;1258;138882;-82
2023/04/20 05:41:26;;;;;;;17.10;10.20;;;;;;;11.77;71.50;100466.83;102971;1261;112005;-82
2023/04/20 05:43:49;;;;;;;15.30;10.10;;;;;;;13.12;70.39;100470.30;102952;1261;107717;-82
2023/04/20 05:46:15;;;;;;;;;;;;;;;14.38;68.43;100471.19;102788;1261;138802;-84
2023/04/20 05:48:39;;;;;;;16.10;9.60;;;;;;;15.32;66.38;100469.83;102861;1263;107679;-87
2023/04/20 05:51:02;;;;;;;17.10;9.50;;;;;;;16.37;64.72;100465.45;102791;1257;138391;-66
2023/04/20 05:53:26;;;;;;;18.80;9.40;;;;;;;16.93;63.09;100461.91;102894;1258;110836;-64
2023/04/20 05:55:49;;;;;;;13.20;9.00;;;;;;;17.22;61.76;100459.77;102792;1263;109216;-63
2023/04/20 05:58:13;;;;;;;13.40;8.60;;;;;;;17.38;60.27;100463.05;102801;1257;138214;-62
2023/04/20 06:00:36;;;;;;;12.80;9.60;;;;;;;17.21;59.42;100464.94;102922;1258;109018;-80
2023/04/20 06:03:00;;;;;;;15.20;9.00;;;;;;;17.16;59.00;100464.48;102757;1258;137977;-81
2023/04/20 06:05:24;;;;;;;18.40;8.40;;;;;;;17.87;58.14;100466.63;102900;1262;111796;-83
2023/04/20 06:07:48;;;;;;;17.70;9.20;;;;;;;18.63;57.11;100469.73;102882;1257;107850;-81
2023/04/20 06:10:12;;;;;;;17.10;8.60;;;;;;;19.16;55.83;100468.88;102833;1257;138165;-79
2023/04/20 06:12:35;;;;;;;16.10;8.70;;;;;;;19.28;54.54;100470.04;103950;1258;109067;-82
2023/04/20 06:14:59;;;;;;;12.20;8.60;;;;;;;19.54;53.71;100462.34;102780;1258;137992;-87
2023/04/20 06:17:22;;;;;;;14.60;8.30;;;;;;;20.58;53.62;100465.47;102887;1257;111229;-82
2023/04/20 06:19:46;;;;;;;15.60;7.80;;;;;;;21.78;51.47;100464.56;102866;1258;108949;-77
2023/04/20 06:22:15;;;;;;;16.70;7.60;;;;;;;22.79;49.98;100466.48;102597;1261;138015;-72
2023/04/20 06:24:41;;;;;;;13.70;8.10;;;;;;;24.52;48.97;100459.91;103735;1260;107591;-76
2023/04/20 06:27:05;;;;;;;15.60;8.40;;;;;;;26.19;46.63;100458.27;102775;1258;137993;-74
2023/04/20 06:29:28;;;;;;;18.10;7.40;;;;;;;27.64;44.32;100455.79;104224;1257;111312;-88
2023/04/20 06:31:52;;;;;;;14.20;6.20;;;;;;;28.88;41.80;100448.88;104186;1257;107616;-87
2023/04/20 06:34:15;;;;;;;11.90;6.50;;;;;;;29.89;40.38;100447.09;104164;1257;138082;-82
2023/04/20 06:36:42;;;;;;;10.50;6.40;;;;;;;30.78;38.90;100447.31;104235;1256;107371;-76
2023/04/20 06:39:06;;;;;;;13.70;6.20;;;;;;;31.69;38.00;100440.52;104160;1258;138242;-75
2023/04/20 06:41:29;;;;;;;13.40;6.00;;;;;;;31.91;36.06;100438.16;104296;1257;111176;-77
2023/04/20 06:44:01;;;;;;;14.50;5.70;;;;;;;32.31;35.24;100439.70;103000;1260;100780;-80
2023/04/20 06:46:25;;;;;;;14.20;5.80;;;;;;;32.99;34.23;100437.21;102779;1257;137954;-77
2023/04/20 06:48:48;;;;;;;14.10;5.50;;;;;;;33.72;33.02;100434.34;102886;1260;99877;-76
2023/04/20 06:51:13;;;;;;;16.80;5.80;;;;;;;34.45;32.38;100437.39;102840;1257;138095;-83
2023/04/20 06:53:37;;;;;;;12.60;5.40;;;;;;;35.05;31.46;100440.76;103012;1257;103584;-78
2023/04/20 06:56:00;;;;;;;13.30;5.20;;;;;;;35.57;30.66;100445.11;103936;1258;100636;-82
2023/04/20 06:58:24;;;;;;;12.60;5.20;;;;;;;36.01;29.52;100443.17;103080;1257;138736;-84
2023/04/20 07:00:48;;;;;;;18.70;5.40;;;;;;;36.47;29.04;100442.86;102961;1260;100212;-86
2023/04/20 07:03:11;;;;;;;13.80;5.30;;;;;;;36.92;28.59;100448.48;102844;1257;138267;-85
2023/04/20 07:05:37;;;;;;;13.80;5.00;;;;;;;37.39;27.74;100447.44;102845;1257;103724;-83
2023/04/20 07:08:01;;;;;;;16.10;5.50;;;;;;;37.73;26.86;100450.52;102926;1257;100730;-87
2023/04/20 07:10:25;;;;;;;12.30;5.20;;;;;;;37.90;25.58;100451.69;102674;1257;138000;-84
2023/04/20 07:12:48;;;;;;;15.50;5.20;;;;;;;38.10;25.65;100451.41;102839;1257;99999;-86
2023/04/20 07:15:12;;;;;;;13.60;4.70;;;;;;;38.34;25.21;100454.58;102890;1257;138079;-84
2023/04/20 07:17:36;;;;;;;13.30;5.10;;;;;;;38.41;24.36;100451.08;102836;1260;103604;-84
2023/04/20 07:20:06;;;;;;;11.00;4.50;;;;;;;38.39;23.61;100452.44;102982;1256;108087;-86
2023/04/20 07:22:29;;;;;;;17.70;4.70;;;;;;;38.29;23.32;100452.89;103186;1260;138192;-86
2023/04/20 07:24:53;;;;;;;15.40;5.20;;;;;;;38.32;23.62;100456.46;103547;1257;99300;-85
2023/04/20 07:27:17;;;;;;;20.00;8.80;;;;;;;38.56;23.13;100456.88;103335;1258;138218;-83
2023/04/20 07:29:40;;;;;;;12.00;4.50;;;;;;;38.72;22.26;100456.91;102921;1257;111421;-87
2023/04/20 07:32:04;;;;;;;11.60;4.70;;;;;;;38.50;21.72;100459.64;103456;1257;98726;-83
2023/04/20 07:34:28;;;;;;;17.30;4.40;;;;;;;38.33;21.68;100456.45;102917;1257;138073;-82
2023/04/20 07:36:51;;;;;;;12.00;4.80;;;;;;;38.12;21.96;100457.15;103479;1257;99852;-83
2023/04/20 07:39:15;;;;;;;13.70;4.60;;;;;;;37.76;21.79;100458.45;103117;1257;138340;-81
2023/04/20 07:41:39;;;;;;;14.40;4.70;;;;;;;37.17;21.77;100460.11;103092;1257;104641;-83
2023/04/20 07:44:05;;;;;;;18.10;4.60;;;;;;;36.78;22.13;100458.70;103614;1257;100158;-83
2023/04/20 07:46:28;;;;;;;11.80;4.70;;;;;;;36.80;22.54;100457.61;103967;1256;138259;-82
2023/04/20 07:48:51;;;;;;;11.30;4.70;;;;;;;37.11;22.66;100454.34;104038;1257;100947;-81
2023/04/20 07:51:15;;;;;;;17.60;4.40;;;;;;;37.51;22.26;100453.65;103069;1258;138192;-82
2023/04/20 07:53:39;;;;;;;12.60;4.10;;;;;;;37.77;21.85;100451.33;104354;1257;103603;-84
2023/04/20 07:56:02;;;;;;;11.40;4.60;;;;;;;37.99;21.76;100452.73;103150;1260;99895;-85
2023/04/20 07:58:26;;;;;;;19.10;4.50;;;;;;;38.22;21.44;100451.38;103710;1257;137955;-86
2023/04/20 08:00:49;;;;;;;15.40;4.10;;;;;;;38.29;20.99;100453.52;102891;1257;109334;-85
2023/04/20 08:03:12;;;;;;;17.80;4.20;;;;;;;38.39;21.09;100452.06;102822;1257;138337;-88
2023/04/20 08:05:39;;;;;;;17.30;4.20;;;;;;;38.56;20.92;100455.99;103000;1257;103835;-85
2023/04/20 08:08:03;;;;;;;18.70;3.90;;;;;;;38.63;19.96;100454.80;102916;1260;100182;-86
2023/04/20 08:10:26;;;;;;;19.70;4.10;;;;;;;38.55;19.83;100455.58;104211;1257;138327;-81
2023/04/20 08:12:52;;;;;;;21.50;4.50;;;;;;;38.36;19.13;100454.15;103414;1255;100149;-71
2023/04/20 08:15:15;;;;;;;11.50;3.70;;;;;;;38.02;19.17;100449.95;103018;1257;138347;-66
2023/04/20 08:17:39;;;;;;;21.20;4.30;;;;;;;37.77;19.95;100451.09;103488;1260;103195;-67
2023/04/20 08:20:04;;;;;;;22.00;4.60;;;;;;;37.67;19.58;100452.77;102980;1258;99464;-66
2023/04/20 08:22:29;;;;;;;18.20;4.50;;;;;;;37.55;19.40;100450.27;102829;1257;137968;-64
2023/04/20 08:24:52;;;;;;;17.50;3.50;;;;;;;37.48;19.88;100454.04;102985;1257;100114;-65
2023/04/20 08:27:16;;;;;;;13.60;3.40;;;;;;;37.43;19.67;100448.86;102830;1257;138160;-64
2023/04/20 08:29:39;;;;;;;33.70;5.80;;;;;;;37.41;19.88;100452.59;103863;1257;103635;-65
2023/04/20 08:32:07;;;;;;;26.90;5.20;;;;;;;37.39;20.18;100455.00;103887;1257;100067;-66
2023/04/20 08:34:31;;;;;;;19.10;4.50;;;;;;;37.34;19.89;100454.10;102996;1257;138266;-66
2023/04/20 08:36:54;;;;;;;19.40;3.80;;;;;;;37.21;19.71;100455.04;103061;1257;100893;-65
2023/04/20 08:39:22;;;;;;;21.80;4.20;;;;;;;36.92;18.53;100456.98;102984;1264;139101;-64
2023/04/20 08:41:46;;;;;;;19.80;4.40;;;;;;;36.61;19.29;100454.69;103924;1257;102755;-65
2023/04/20 08:44:10;;;;;;;12.40;3.80;;;;;;;36.47;19.04;100458.92;103190;1257;100080;-67
2023/04/20 08:46:34;;;;;;;18.20;4.00;;;;;;;36.23;18.95;100455.61;103009;1257;98568;-65
2023/04/20 08:49:00;;;;;;;12.10;3.60;;;;;;;36.00;19.55;100453.76;102943;1256;101213;-66
2023/04/20 08:51:24;;;;;;;12.60;4.00;;;;;;;35.96;19.53;100459.98;103012;1260;138201;-65
2023/04/20 08:53:47;;;;;;;19.00;3.80;;;;;;;35.76;19.40;100466.98;103308;1259;103571;-84
2023/04/20 08:56:11;;;;;;;16.60;4.10;;;;;;;35.54;19.68;100461.59;104306;1256;100498;-79
2023/04/20 08:58:37;;;;;;;12.40;3.60;;;;;;;35.57;19.96;100466.12;103045;1257;98160;-76
2023/04/20 09:01:00;;;;;;;16.40;3.70;;;;;;;35.59;19.91;100460.91;103010;1261;100584;-76
2023/04/20 09:03:33;;;;;;;10.30;3.40;;;;;;;35.63;19.61;100463.11;102853;1257;138522;-73
2023/04/20 09:05:56;;;;;;;17.20;3.60;;;;;;;35.61;19.62;100464.08;104450;1256;103549;-75
2023/04/20 09:08:20;;;;;;;16.50;3.50;;;;;;;35.55;19.92;100462.02;104051;1257;138537;-75
2023/04/20 09:10:44;;;;;;;8.50;3.10;;;;;;;35.41;19.96;100457.91;103150;1257;97690;-78
2023/04/20 09:13:08;;;;;;;19.50;3.60;;;;;;;34.85;19.66;100457.42;103018;1261;99652;-76
2023/04/20 09:15:32;;;;;;;18.70;3.40;;;;;;;33.99;20.02;100458.05;104079;1257;138131;-75
2023/04/20 09:17:56;;;;;;;13.70;3.40;;;;;;;33.53;20.47;100460.13;102982;1257;103734;-75
2023/04/20 09:20:28;;;;;;;11.90;3.70;;;;;;;32.96;20.93;100455.52;103574;1257;139177;-77
2023/04/20 09:22:53;;;;;;;12.50;3.40;;;;;;;32.37;21.24;100456.55;103338;1257;98235;-75
2023/04/20 09:25:17;;;;;;;18.70;3.60;;;;;;;31.43;21.20;100462.61;102713;1257;108281;-75
2023/04/20 09:27:41;;;;;;;17.30;3.70;;;;;;;30.65;21.65;100463.89;103458;1257;138206;-75
2023/04/20 09:30:08;;;;;;;15.30;3.60;;;;;;;30.60;22.28;100465.39;104291;1257;112279;-75
2023/04/20 09:32:32;;;;;;;16.10;3.40;;;;;;;30.15;22.18;100462.38;103589;1257;138077;-75
2023/04/20 09:34:56;;;;;;;14.30;3.40;;;;;;;29.32;22.43;100468.38;103281;1260;97791;-77
2023/04/20 09:37:19;;;;;;;11.60;3.70;;;;;;;28.66;22.95;100467.55;103435;1257;138679;-78
2023/04/20 09:39:44;;;;;;;16.90;3.70;;;;;;;28.12;23.44;100469.66;103388;1261;97807;-78
2023/04/20 09:42:12;;;;;;;9.80;3.80;;;;;;;28.02;23.84;100473.91;103024;1258;112483;-78
2023/04/20 09:44:38;;;;;;;17.70;3.50;;;;;;;27.97;23.76;100473.31;102904;1257;138089;-79
2023/04/20 09:47:03;;;;;;;17.20;3.20;;;;;;;28.14;23.71;100463.92;103588;1257;96555;-78
2023/04/20 09:49:27;;;;;;;14.60;3.50;;;;;;;28.57;23.88;100465.77;103619;1257;138024;-78
2023/04/20 09:51:51;;;;;;;11.40;2.90;;;;;;;28.65;22.89;100466.41;104285;1257;96042;-78
2023/04/20 09:54:15;;;;;;;19.30;3.20;;;;;;;27.90;22.22;100477.63;103132;1262;111329;-77
2023/04/20 09:56:40;;;;;;;11.10;3.30;;;;;;;27.71;23.25;100472.39;103258;1256;137990;-77
2023/04/20 09:59:04;;;;;;;10.60;3.50;;;;;;;27.88;23.44;100471.41;103463;1256;96018;-76
2023/04/20 10:01:32;;;;;;;15.80;3.30;;;;;;;27.67;23.59;100466.91;103188;1257;138219;-80
2023/04/20 10:03:57;;;;;;;12.40;3.30;;;;;;;27.90;23.13;100467.50;103632;1258;97793;-81
2023/04/20 10:06:23;;;;;;;11.10;3.80;;;;;;;27.90;23.55;100458.90;102942;1257;111700;-71
2023/04/20 10:08:49;;;;;;;12.50;3.20;;;;;;;27.86;24.03;100460.04;103669;1257;108984;-70
2023/04/20 10:11:24;;;;;;;13.00;3.20;;;;;;;28.00;23.93;100459.50;103598;1257;97930;-70
2023/04/20 10:13:49;;;;;;;9.30;3.30;;;;;;;27.85;22.92;100463.31;102793;1256;138141;-71
2023/04/20 10:16:19;;;;;;;14.50;3.30;;;;;;;27.18;22.17;100465.35;103005;1260;97671;-70
2023/04/20 10:18:42;;;;;;;18.40;3.40;;;;;;;26.37;22.83;100461.95;103143;1257;138937;-69
2023/04/20 10:21:08;;;;;;;11.80;2.90;;;;;;;26.05;23.93;100464.84;102838;1257;109091;-69
2023/04/20 10:23:31;;;;;;;13.90;3.00;;;;;;;26.06;24.04;100460.06;102944;1260;97838;-68
2023/04/20 10:25:57;;;;;;;11.90;2.90;;;;;;;25.92;24.40;100466.53;102704;1260;138109;-70
2023/04/20 10:28:20;;;;;;;13.00;3.00;;;;;;;25.46;24.13;100461.02;102832;1258;99428;-73
2023/04/20 10:30:52;;;;;;;10.90;3.00;;;;;;;24.84;23.67;100461.72;102931;1262;138456;-74
2023/04/20 10:33:16;;;;;;;12.50;3.10;;;;;;;24.11;24.23;100462.55;103075;1257;107727;-73
2023/04/20 10:35:46;;;;;;;7.70;2.50;;;;;;;23.59;24.08;100458.20;102914;1258;97852;-73
2023/04/20 10:38:10;;;;;;;7.40;2.90;;;;;;;23.09;24.06;100462.34;103085;1257;137913;-73
2023/04/20 10:40:35;;;;;;;10.50;2.60;;;;;;;23.16;25.24;100455.55;102868;1258;97888;-74
2023/04/20 10:43:00;;;;;;;8.60;2.80;;;;;;;23.52;25.30;100445.48;102934;1257;138230;-73
2023/04/20 10:45:35;;;;;;;11.60;3.20;;;;;;;23.98;25.26;100442.55;102940;1257;109688;-70
2023/04/20 10:48:05;;;;;;;6.10;2.70;;;;;;;23.99;23.94;100447.96;103165;1257;98151;-86
2023/04/20 10:50:29;;;;;;;8.40;2.90;;;;;;;23.62;22.57;100454.45;102778;1257;137993;-82
2023/04/20 10:52:52;;;;;;;9.60;2.40;;;;;;;23.17;23.15;100456.14;102960;1261;97780;-81
2023/04/20 10:55:21;;;;;;;11.00;2.80;;;;;;;23.04;23.17;100454.77;102831;1256;229589;-83
2023/04/20 10:57:45;;;;;;;8.40;3.10;;;;;;;22.78;23.82;100456.80;102945;1258;107385;-81
2023/04/20 11:00:17;;;;;;;9.40;2.50;;;;;;;22.62;24.61;100453.12;102900;1262;97848;-83
2023/04/20 11:02:50;;;;;;;10.30;2.50;;;;;;;22.57;25.12;100451.20;103379;1257;138332;-82
2023/04/20 11:05:15;;;;;;;11.40;2.90;;;;;;;22.76;25.23;100449.00;102974;1262;97861;-86